createdAt,value
2019-01-24T00:02:23.790Z,26.70
2019-01-24T00:04:54.311Z,24.60
2019-01-24T00:07:24.846Z,27.90
2019-01-24T00:09:55.349Z,29.90
2019-01-24T00:12:25.859Z,27.70
2019-01-24T00:14:56.339Z,27.47
2019-01-24T00:17:26.841Z,27.30
2019-01-24T00:19:57.312Z,26.67
2019-01-24T00:22:29.350Z,25.60
2019-01-24T00:24:59.831Z,23.83
2019-01-24T00:27:30.327Z,26.20
2019-01-24T00:30:00.839Z,23.27
2019-01-24T00:32:31.332Z,21.97
2019-01-24T00:35:01.846Z,23.30
2019-01-24T00:37:32.320Z,22.87
2019-01-24T00:40:02.882Z,22.97
2019-01-24T00:42:33.427Z,22.43
2019-01-24T00:45:05.787Z,21.90
2019-01-24T00:47:36.268Z,22.30
2019-01-24T00:50:11.071Z,23.17
2019-01-24T00:52:41.614Z,22.57
2019-01-24T00:55:15.271Z,22.90
2019-01-24T00:57:45.757Z,24.70
2019-01-24T01:00:37.184Z,28.90
2019-01-24T01:03:07.722Z,23.60
2019-01-24T01:05:38.237Z,22.23
2019-01-24T01:08:08.771Z,23.20
2019-01-24T01:10:40.322Z,24.80
2019-01-24T01:13:10.777Z,25.97
2019-01-24T01:15:41.276Z,22.43
2019-01-24T01:18:11.831Z,23.80
2019-01-24T01:20:42.335Z,22.60
2019-01-24T01:23:12.883Z,24.67
2019-01-24T01:25:43.450Z,24.70
2019-01-24T01:28:14.096Z,23.07
2019-01-24T01:30:44.670Z,23.00
2019-01-24T01:33:15.151Z,25.70
2019-01-24T01:35:45.805Z,27.57
2019-01-24T01:38:17.480Z,30.57
2019-01-24T01:40:48.061Z,26.67
2019-01-24T01:43:18.535Z,30.13
2019-01-24T01:45:49.036Z,28.87
2019-01-24T01:48:19.540Z,29.10
2019-01-24T01:50:50.007Z,30.03
2019-01-24T01:53:20.518Z,29.27
2019-01-24T01:55:51.462Z,29.57
2019-01-24T01:58:21.975Z,25.57
2019-01-24T02:00:52.447Z,26.67
2019-01-24T02:03:22.950Z,29.13
2019-01-24T02:05:53.466Z,27.87
2019-01-24T02:08:24.001Z,26.83
2019-01-24T02:10:54.505Z,27.53
2019-01-24T02:13:24.978Z,29.13
2019-01-24T02:15:55.478Z,28.80
2019-01-24T02:18:26.284Z,24.90
2019-01-24T02:20:56.796Z,27.97
2019-01-24T02:23:27.288Z,26.27
2019-01-24T02:25:57.833Z,26.97
2019-01-24T02:28:29.481Z,28.97
2019-01-24T02:30:59.966Z,26.57
2019-01-24T02:33:30.453Z,27.47
2019-01-24T02:36:00.941Z,25.23
2019-01-24T02:38:31.429Z,27.40
2019-01-24T02:41:01.902Z,27.00
2019-01-24T02:43:33.974Z,25.57
2019-01-24T02:46:04.516Z,27.50
2019-01-24T02:48:35.031Z,25.50
2019-01-24T02:51:05.642Z,25.70
2019-01-24T02:53:36.205Z,27.43
2019-01-24T02:56:07.014Z,26.57
2019-01-24T02:58:37.524Z,25.97
2019-01-24T03:01:08.137Z,27.77
2019-01-24T03:03:38.643Z,24.80
2019-01-24T03:06:09.171Z,27.77
2019-01-24T03:08:39.647Z,24.97
2019-01-24T03:11:10.218Z,26.07
2019-01-24T03:13:40.760Z,25.83
2019-01-24T03:16:11.283Z,23.67
2019-01-24T03:18:41.753Z,24.50
2019-01-24T03:21:12.248Z,24.50
2019-01-24T03:23:43.334Z,25.07
2019-01-24T03:26:13.846Z,26.33
2019-01-24T03:28:44.313Z,24.67
2019-01-24T03:31:14.884Z,29.00
2019-01-24T03:33:45.370Z,27.27
2019-01-24T03:36:15.872Z,24.67
2019-01-24T03:38:46.348Z,26.30
2019-01-24T03:41:16.924Z,23.50
2019-01-24T03:43:47.396Z,26.97
2019-01-24T03:46:17.909Z,25.07
2019-01-24T03:48:48.384Z,24.50
2019-01-24T03:51:18.896Z,22.77
2019-01-24T03:53:49.371Z,25.47
2019-01-24T03:56:19.883Z,23.90
2019-01-24T03:58:50.734Z,26.20
2019-01-24T04:01:21.251Z,23.33
2019-01-24T04:03:51.962Z,23.83
2019-01-24T04:06:22.462Z,23.57
2019-01-24T04:08:52.968Z,23.47
2019-01-24T04:11:23.442Z,23.70
2019-01-24T04:13:53.947Z,23.70
2019-01-24T04:16:24.427Z,23.63
2019-01-24T04:18:54.925Z,24.60
2019-01-24T04:21:25.430Z,23.07
2019-01-24T04:23:55.913Z,24.27
2019-01-24T04:26:26.413Z,27.40
2019-01-24T04:28:56.896Z,24.63
2019-01-24T04:31:27.395Z,22.47
2019-01-24T04:33:57.982Z,25.70
2019-01-24T04:36:28.481Z,25.77
2019-01-24T04:38:58.977Z,28.47
2019-01-24T04:41:29.451Z,29.37
2019-01-24T04:43:59.950Z,30.77
2019-01-24T04:46:30.425Z,27.60
2019-01-24T04:49:00.942Z,33.20
2019-01-24T04:51:31.442Z,35.63
2019-01-24T04:54:01.903Z,28.67
2019-01-24T04:56:32.408Z,26.50
2019-01-24T04:59:02.879Z,25.17
2019-01-24T05:01:33.442Z,28.10
2019-01-24T05:04:03.926Z,25.37
2019-01-24T05:06:34.423Z,28.60
2019-01-24T05:09:07.770Z,26.37
2019-01-24T05:11:38.270Z,23.90
2019-01-24T05:14:08.815Z,24.50
2019-01-24T05:16:39.345Z,25.43
2019-01-24T05:19:09.811Z,26.07
2019-01-24T05:21:40.322Z,25.03
2019-01-24T05:24:10.831Z,24.43
2019-01-24T05:26:41.298Z,28.63
2019-01-24T05:29:11.800Z,26.17
2019-01-24T05:31:42.271Z,26.30
2019-01-24T05:34:12.785Z,24.60
2019-01-24T05:36:43.253Z,26.80
2019-01-24T05:39:13.773Z,27.40
2019-01-24T05:41:44.244Z,30.70
2019-01-24T05:44:14.742Z,29.77
2019-01-24T05:46:45.315Z,29.50
2019-01-24T05:49:15.883Z,29.37
2019-01-24T05:51:46.398Z,30.50
2019-01-24T05:54:16.872Z,27.40
2019-01-24T05:56:47.385Z,28.90
2019-01-24T05:59:17.861Z,30.30
2019-01-24T06:01:49.127Z,28.80
2019-01-24T06:04:19.606Z,29.47
2019-01-24T06:06:50.207Z,32.90
2019-01-24T06:09:20.677Z,29.70
2019-01-24T06:11:51.192Z,27.00
2019-01-24T06:14:21.713Z,29.80
2019-01-24T06:16:52.192Z,31.07
2019-01-24T06:19:22.698Z,38.93
2019-01-24T06:21:53.172Z,33.13
2019-01-24T06:24:23.704Z,29.30
2019-01-24T06:26:54.177Z,28.20
2019-01-24T06:29:24.770Z,32.20
2019-01-24T06:31:55.236Z,36.43
2019-01-24T06:34:25.760Z,41.50
2019-01-24T06:36:56.238Z,40.70
2019-01-24T06:39:26.750Z,31.43
2019-01-24T06:41:57.247Z,27.97
2019-01-24T06:44:27.758Z,30.57
2019-01-24T06:46:58.279Z,33.40
2019-01-24T06:49:28.792Z,32.97
2019-01-24T06:51:59.259Z,47.60
2019-01-24T06:54:29.763Z,52.93
2019-01-24T06:57:00.358Z,35.60
2019-01-24T06:59:30.843Z,33.27
2019-01-24T07:02:01.349Z,30.37
2019-01-24T07:04:32.391Z,30.60
2019-01-24T07:07:02.896Z,32.93
2019-01-24T07:09:33.370Z,31.90
2019-01-24T07:12:03.954Z,30.83
2019-01-24T07:14:34.462Z,34.13
2019-01-24T07:17:04.936Z,31.30
2019-01-24T07:19:35.427Z,33.30
2019-01-24T07:22:05.972Z,31.27
2019-01-24T07:24:36.474Z,33.77
2019-01-24T07:27:08.113Z,34.07
2019-01-24T07:29:38.620Z,32.50
2019-01-24T07:32:09.124Z,35.37
2019-01-24T07:34:39.615Z,33.97
2019-01-24T07:37:10.124Z,87.63
2019-01-24T07:39:40.615Z,47.13
2019-01-24T07:42:13.646Z,35.33
2019-01-24T07:44:44.120Z,32.93
2019-01-24T07:47:14.654Z,36.27
2019-01-24T07:49:45.123Z,34.20
2019-01-24T07:52:15.643Z,33.07
2019-01-24T07:54:46.126Z,34.67
2019-01-24T07:57:16.621Z,31.93
2019-01-24T07:59:47.128Z,31.97
2019-01-24T08:02:17.627Z,30.47
2019-01-24T08:04:48.137Z,30.13
2019-01-24T08:07:18.631Z,32.40
2019-01-24T08:09:49.139Z,32.67
2019-01-24T08:12:19.714Z,35.30
2019-01-24T08:14:50.192Z,34.57
2019-01-24T08:17:20.705Z,34.17
2019-01-24T08:19:51.194Z,34.40
2019-01-24T08:22:21.703Z,35.40
2019-01-24T08:24:52.214Z,34.70
2019-01-24T08:27:22.690Z,35.97
2019-01-24T08:29:53.207Z,38.40
2019-01-24T08:32:23.679Z,38.17
2019-01-24T08:34:54.189Z,39.80
2019-01-24T08:37:24.695Z,39.30
2019-01-24T08:39:55.168Z,40.13
2019-01-24T08:42:25.672Z,69.17
2019-01-24T08:44:56.153Z,50.87
2019-01-24T08:47:26.692Z,41.67
2019-01-24T08:49:57.162Z,38.63
2019-01-24T08:52:27.677Z,38.20
2019-01-24T08:54:58.160Z,40.30
2019-01-24T08:57:28.655Z,40.37
2019-01-24T09:00:00.268Z,41.27
2019-01-24T09:02:30.799Z,39.03
2019-01-24T09:05:02.809Z,39.23
2019-01-24T09:07:33.329Z,40.93
2019-01-24T09:10:05.555Z,40.63
2019-01-24T09:12:36.027Z,38.23
2019-01-24T09:15:11.244Z,38.40
2019-01-24T09:17:41.752Z,38.43
2019-01-24T09:20:21.014Z,37.00
2019-01-24T09:22:55.469Z,40.23
2019-01-24T09:25:23.760Z,38.10
2019-01-24T09:27:54.335Z,37.53
2019-01-24T09:30:45.702Z,37.00
2019-01-24T09:33:16.836Z,43.50
2019-01-24T09:35:47.409Z,39.13
2019-01-24T09:38:17.925Z,33.90
2019-01-24T09:40:48.875Z,32.00
2019-01-24T09:43:19.444Z,34.80
2019-01-24T09:45:50.046Z,32.00
2019-01-24T09:48:20.525Z,33.83
2019-01-24T09:50:51.092Z,34.07
2019-01-24T09:53:22.063Z,32.30
2019-01-24T09:55:52.533Z,35.97
2019-01-24T09:58:23.033Z,35.60
2019-01-24T10:00:53.538Z,35.20
2019-01-24T10:03:24.018Z,32.57
2019-01-24T10:05:54.535Z,32.30
2019-01-24T10:08:25.034Z,32.57
2019-01-24T10:10:55.501Z,43.00
2019-01-24T10:13:26.154Z,32.17
2019-01-24T10:15:56.599Z,32.47
2019-01-24T10:18:27.238Z,31.70
2019-01-24T10:20:57.706Z,35.67
2019-01-24T10:23:28.263Z,34.40
2019-01-24T10:25:58.713Z,37.83
2019-01-24T10:28:29.275Z,36.10
2019-01-24T10:30:59.747Z,36.97
2019-01-24T10:33:30.264Z,35.07
2019-01-24T10:36:02.526Z,35.50
2019-01-24T10:38:33.014Z,36.47
2019-01-24T10:41:03.495Z,37.77
2019-01-24T10:43:34.049Z,41.40
2019-01-24T10:46:04.673Z,40.67
2019-01-24T10:48:36.764Z,37.70
2019-01-24T10:51:07.257Z,38.47
2019-01-24T10:53:37.716Z,41.10
2019-01-24T10:56:08.311Z,41.13
2019-01-24T10:58:38.777Z,40.50
2019-01-24T11:01:09.402Z,39.60
2019-01-24T11:03:39.924Z,41.63
2019-01-24T11:06:10.409Z,40.27
2019-01-24T11:08:40.971Z,38.17
2019-01-24T11:11:11.444Z,38.97
2019-01-24T11:13:42.003Z,39.60
2019-01-24T11:16:13.999Z,57.33
2019-01-24T11:18:44.508Z,98.30
2019-01-24T11:21:14.969Z,44.87
2019-01-24T11:23:45.448Z,44.80
2019-01-24T11:26:15.956Z,43.40
2019-01-24T11:28:46.416Z,44.50
2019-01-24T11:31:16.965Z,42.53
2019-01-24T11:33:47.466Z,44.57
2019-01-24T11:36:17.999Z,48.97
2019-01-24T11:38:48.486Z,45.30
2019-01-24T11:41:18.981Z,49.67
2019-01-24T11:43:50.748Z,48.13
2019-01-24T11:46:21.249Z,49.43
2019-01-24T11:48:51.708Z,47.60
2019-01-24T11:51:22.213Z,49.80
2019-01-24T11:53:53.204Z,84.47
2019-01-24T11:56:23.944Z,46.30
2019-01-24T11:58:54.415Z,36.03
2019-01-24T12:01:24.895Z,36.47
2019-01-24T12:03:55.377Z,37.70
2019-01-24T12:06:25.865Z,42.60
2019-01-24T12:08:56.422Z,44.30
2019-01-24T12:11:26.947Z,43.27
2019-01-24T12:13:57.439Z,68.03
2019-01-24T12:16:27.935Z,46.87
2019-01-24T12:18:58.397Z,47.17
2019-01-24T12:21:28.889Z,47.23
2019-01-24T12:23:59.366Z,46.03
2019-01-24T12:26:29.828Z,46.23
2019-01-24T12:29:00.329Z,46.57
2019-01-24T12:31:30.844Z,44.63
2019-01-24T12:34:01.297Z,44.67
2019-01-24T12:36:31.798Z,46.20
2019-01-24T12:39:02.314Z,45.93
2019-01-24T12:41:32.768Z,48.60
2019-01-24T12:44:03.277Z,37.07
2019-01-24T12:46:33.770Z,39.87
2019-01-24T12:49:04.241Z,49.20
2019-01-24T12:51:34.764Z,43.87
2019-01-24T12:54:05.998Z,41.60
2019-01-24T12:56:36.490Z,37.90
2019-01-24T12:59:07.070Z,36.13
2019-01-24T13:01:37.623Z,32.40
2019-01-24T13:04:08.084Z,23.37
2019-01-24T13:06:38.572Z,21.50
2019-01-24T13:09:09.185Z,47.03
2019-01-24T13:11:39.697Z,24.87
2019-01-24T13:14:10.271Z,22.90
2019-01-24T13:16:40.755Z,20.40
2019-01-24T13:19:11.249Z,19.57
2019-01-24T13:21:41.740Z,19.10
2019-01-24T13:24:12.242Z,17.77
2019-01-24T13:26:44.330Z,19.67
2019-01-24T13:29:14.825Z,18.60
2019-01-24T13:31:45.347Z,19.73
2019-01-24T13:34:15.795Z,18.73
2019-01-24T13:36:46.302Z,19.10
2019-01-24T13:39:16.768Z,20.07
2019-01-24T13:41:48.800Z,20.97
2019-01-24T13:44:19.351Z,19.70
2019-01-24T13:46:49.834Z,21.00
2019-01-24T13:49:20.329Z,36.27
2019-01-24T13:51:50.786Z,22.40
2019-01-24T13:54:21.283Z,21.23
2019-01-24T13:56:51.741Z,22.80
2019-01-24T13:59:22.258Z,19.37
2019-01-24T14:01:52.710Z,19.30
2019-01-24T14:04:23.279Z,21.90
2019-01-24T14:06:53.779Z,22.43
2019-01-24T14:09:24.244Z,21.00
2019-01-24T14:11:54.746Z,20.67
2019-01-24T14:14:25.249Z,18.80
2019-01-24T14:16:55.703Z,21.70
2019-01-24T14:19:26.262Z,20.70
2019-01-24T14:21:56.778Z,19.83
2019-01-24T14:24:27.283Z,22.60
2019-01-24T14:26:57.803Z,20.23
2019-01-24T14:29:28.350Z,22.80
2019-01-24T14:31:58.818Z,20.97
2019-01-24T14:34:29.311Z,20.57
2019-01-24T14:36:59.815Z,21.73
2019-01-24T14:39:30.280Z,21.47
2019-01-24T14:42:00.767Z,23.13
2019-01-24T14:44:32.908Z,23.47
2019-01-24T14:47:03.415Z,21.03
2019-01-24T14:49:33.882Z,22.27
2019-01-24T14:52:06.201Z,23.27
2019-01-24T14:54:38.165Z,22.57
2019-01-24T14:57:08.630Z,23.60
2019-01-24T14:59:39.126Z,24.30
2019-01-24T15:02:09.663Z,23.40
2019-01-24T15:04:40.166Z,23.43
2019-01-24T15:07:11.572Z,23.80
2019-01-24T15:09:42.069Z,24.07
2019-01-24T15:12:12.579Z,20.43
2019-01-24T15:14:44.146Z,21.63
2019-01-24T15:17:14.659Z,24.53
2019-01-24T15:19:45.131Z,23.80
2019-01-24T15:22:15.645Z,36.57
2019-01-24T15:24:46.119Z,25.57
2019-01-24T15:27:16.625Z,20.53
2019-01-24T15:29:47.154Z,20.53
2019-01-24T15:32:17.648Z,22.30
2019-01-24T15:34:48.120Z,20.83
2019-01-24T15:37:19.252Z,22.90
2019-01-24T15:39:49.765Z,22.27
2019-01-24T15:42:20.263Z,21.17
2019-01-24T15:44:53.527Z,21.13
2019-01-24T15:47:24.030Z,21.70
2019-01-24T15:49:54.499Z,20.30
2019-01-24T15:52:25.006Z,21.93
2019-01-24T15:54:55.475Z,23.40
2019-01-24T15:57:25.972Z,23.60
2019-01-24T15:59:56.484Z,24.50
2019-01-24T16:02:27.296Z,27.27
2019-01-24T16:04:57.807Z,22.30
2019-01-24T16:07:28.282Z,22.10
2019-01-24T16:09:58.781Z,22.03
2019-01-24T16:12:29.252Z,24.00
2019-01-24T16:14:59.751Z,20.33
2019-01-24T16:17:30.248Z,35.87
2019-01-24T16:20:00.781Z,30.90
2019-01-24T16:22:31.260Z,25.63
2019-01-24T16:25:01.773Z,21.17
2019-01-24T16:27:32.293Z,21.63
2019-01-24T16:30:02.800Z,21.03
2019-01-24T16:32:33.370Z,22.83
2019-01-24T16:35:04.208Z,23.03
2019-01-24T16:37:34.707Z,21.30
2019-01-24T16:40:09.418Z,21.80
2019-01-24T16:42:39.916Z,22.80
2019-01-24T16:45:15.170Z,22.70
2019-01-24T16:47:45.928Z,26.20
2019-01-24T16:50:19.430Z,23.27
2019-01-24T16:52:50.062Z,24.37
2019-01-24T16:55:21.201Z,23.00
2019-01-24T16:57:53.091Z,21.60
2019-01-24T17:00:30.847Z,21.90
2019-01-24T17:03:01.312Z,20.30
2019-01-24T17:05:31.969Z,21.50
2019-01-24T17:08:02.575Z,22.67
2019-01-24T17:10:33.068Z,22.53
2019-01-24T17:13:03.707Z,26.77
2019-01-24T17:15:34.248Z,41.33
2019-01-24T17:18:05.518Z,23.60
2019-01-24T17:20:36.151Z,21.53
2019-01-24T17:23:06.932Z,20.90
2019-01-24T17:25:37.530Z,20.57
2019-01-24T17:28:08.150Z,19.93
2019-01-24T17:30:38.735Z,21.97
2019-01-24T17:33:09.345Z,23.20
2019-01-24T17:35:41.317Z,20.37
2019-01-24T17:38:13.423Z,22.37
2019-01-24T17:40:43.941Z,21.30
2019-01-24T17:43:14.559Z,19.90
2019-01-24T17:45:45.031Z,22.23
2019-01-24T17:48:15.543Z,20.90
2019-01-24T17:50:46.063Z,20.10
2019-01-24T17:53:16.542Z,21.03
2019-01-24T17:55:47.500Z,21.27
2019-01-24T17:58:18.082Z,22.23
2019-01-24T18:00:50.424Z,18.53
2019-01-24T18:03:20.990Z,21.73
2019-01-24T18:05:51.539Z,22.37
2019-01-24T18:08:22.006Z,23.70
2019-01-24T18:10:52.500Z,22.30
2019-01-24T18:13:22.978Z,31.70
2019-01-24T18:15:53.528Z,22.77
2019-01-24T18:18:23.998Z,21.33
2019-01-24T18:20:54.524Z,22.07
2019-01-24T18:23:24.997Z,21.67
2019-01-24T18:25:57.378Z,20.70
2019-01-24T18:28:27.886Z,21.63
2019-01-24T18:30:58.368Z,21.27
2019-01-24T18:33:28.933Z,21.87
2019-01-24T18:35:59.416Z,27.20
2019-01-24T18:38:29.918Z,44.67
2019-01-24T18:41:00.556Z,47.93
2019-01-24T18:43:32.062Z,25.07
2019-01-24T18:46:02.636Z,22.50
2019-01-24T18:48:33.208Z,23.23
2019-01-24T18:51:03.734Z,23.37
2019-01-24T18:53:34.308Z,23.63
2019-01-24T18:56:05.041Z,22.30
2019-01-24T18:58:35.617Z,24.30
2019-01-24T19:01:06.323Z,20.80
2019-01-24T19:03:36.828Z,18.70
2019-01-24T19:06:07.485Z,23.37
2019-01-24T19:08:37.993Z,23.73
2019-01-24T19:11:08.666Z,24.33
2019-01-24T19:13:39.130Z,22.97
2019-01-24T19:16:10.063Z,24.20
2019-01-24T19:18:40.585Z,23.27
2019-01-24T19:21:11.084Z,23.67
2019-01-24T19:23:41.550Z,24.60
2019-01-24T19:26:12.923Z,23.67
2019-01-24T19:28:43.431Z,23.20
2019-01-24T19:31:13.923Z,36.10
2019-01-24T19:33:44.397Z,24.60
2019-01-24T19:36:14.903Z,21.07
2019-01-24T19:38:45.473Z,22.77
2019-01-24T19:41:16.008Z,25.30
2019-01-24T19:43:46.502Z,26.07
2019-01-24T19:46:17.170Z,24.80
2019-01-24T19:48:47.648Z,23.10
2019-01-24T19:51:18.144Z,22.27
2019-01-24T19:53:48.711Z,24.17
2019-01-24T19:56:19.262Z,24.00
2019-01-24T19:58:49.775Z,22.93
2019-01-24T20:01:20.266Z,23.27
2019-01-24T20:03:50.800Z,23.23
2019-01-24T20:06:21.320Z,24.70
2019-01-24T20:08:51.906Z,23.60
2019-01-24T20:11:22.451Z,23.47
2019-01-24T20:13:53.016Z,24.63
2019-01-24T20:16:23.548Z,23.37
2019-01-24T20:18:54.088Z,24.33
2019-01-24T20:21:24.597Z,24.80
2019-01-24T20:23:55.070Z,23.10
2019-01-24T20:26:25.576Z,23.90
2019-01-24T20:28:56.090Z,24.47
2019-01-24T20:31:26.582Z,23.10
2019-01-24T20:33:57.071Z,25.40
2019-01-24T20:36:27.549Z,24.00
2019-01-24T20:38:58.059Z,31.57
2019-01-24T20:41:28.531Z,47.97
2019-01-24T20:43:59.051Z,30.37
2019-01-24T20:46:29.850Z,23.13
2019-01-24T20:49:00.370Z,23.37
2019-01-24T20:51:30.907Z,24.80
2019-01-24T20:54:01.441Z,23.90
2019-01-24T20:56:31.931Z,24.80
2019-01-24T20:59:02.409Z,25.63
2019-01-24T21:01:34.423Z,25.13
2019-01-24T21:04:05.061Z,25.40
2019-01-24T21:06:35.528Z,24.77
2019-01-24T21:09:14.474Z,25.50
2019-01-24T21:11:40.461Z,24.30
2019-01-24T21:14:11.041Z,24.33
2019-01-24T21:16:41.979Z,24.50
2019-01-24T21:19:12.502Z,26.83
2019-01-24T21:21:43.072Z,26.30
2019-01-24T21:24:13.681Z,24.87
2019-01-24T21:26:44.178Z,22.17
2019-01-24T21:29:14.680Z,22.60
2019-01-24T21:31:45.184Z,23.00
2019-01-24T21:34:15.738Z,23.87
2019-01-24T21:36:46.250Z,22.77
2019-01-24T21:39:22.146Z,21.40
2019-01-24T21:41:48.974Z,20.90
2019-01-24T21:44:19.442Z,23.40
2019-01-24T21:46:49.909Z,24.37
2019-01-24T21:49:20.429Z,24.10
2019-01-24T21:51:50.908Z,24.23
2019-01-24T21:54:21.420Z,25.23
2019-01-24T21:56:52.823Z,26.60
2019-01-24T21:59:23.334Z,24.47
2019-01-24T22:01:53.858Z,26.07
2019-01-24T22:04:24.341Z,27.23
2019-01-24T22:06:56.226Z,27.60
2019-01-24T22:09:29.202Z,28.70
2019-01-24T22:11:58.886Z,29.67
2019-01-24T22:14:29.374Z,47.70
2019-01-24T22:16:59.890Z,37.80
2019-01-24T22:19:30.361Z,30.47
2019-01-24T22:22:00.872Z,28.37
2019-01-24T22:24:31.339Z,25.50
2019-01-24T22:27:01.846Z,26.83
2019-01-24T22:29:32.326Z,25.40
2019-01-24T22:32:02.834Z,24.17
2019-01-24T22:34:34.377Z,24.27
2019-01-24T22:37:05.309Z,22.70
2019-01-24T22:39:36.694Z,23.43
2019-01-24T22:42:07.462Z,22.07
2019-01-24T22:44:39.827Z,26.37
2019-01-24T22:47:10.368Z,29.20
2019-01-24T22:49:40.866Z,31.30
2019-01-24T22:52:11.436Z,32.33
2019-01-24T22:54:41.906Z,30.67
2019-01-24T22:57:12.406Z,31.43
2019-01-24T22:59:42.873Z,29.07
2019-01-24T23:02:14.383Z,26.93
2019-01-24T23:04:45.554Z,29.60
2019-01-24T23:07:16.027Z,29.63
2019-01-24T23:09:46.515Z,25.70
2019-01-24T23:12:16.985Z,28.07
2019-01-24T23:14:47.482Z,28.07
2019-01-24T23:17:18.055Z,30.63
2019-01-24T23:19:48.560Z,30.47
2019-01-24T23:22:19.030Z,30.40
2019-01-24T23:24:49.605Z,28.90
2019-01-24T23:27:20.078Z,27.47
2019-01-24T23:29:52.121Z,24.37
2019-01-24T23:32:22.599Z,25.00
2019-01-24T23:34:53.122Z,24.87
2019-01-24T23:37:23.612Z,28.27
2019-01-24T23:39:54.215Z,27.47
2019-01-24T23:42:24.682Z,26.00
2019-01-24T23:44:55.198Z,24.90
2019-01-24T23:47:25.670Z,24.73
2019-01-24T23:49:56.159Z,25.07
2019-01-24T23:52:26.628Z,25.47
2019-01-24T23:54:57.143Z,22.57
2019-01-24T23:57:27.644Z,20.90
2019-01-24T23:59:58.109Z,23.43
